createdAt,value
2023-05-14T00:00:55.130Z,16.50
2023-05-14T00:03:21.824Z,16.50
2023-05-14T00:05:48.697Z,16.40
2023-05-14T00:08:15.415Z,16.30
2023-05-14T00:10:42.136Z,16.40
2023-05-14T00:13:08.967Z,16.30
2023-05-14T00:15:35.687Z,16.50
2023-05-14T00:18:02.427Z,16.40
2023-05-14T00:20:29.271Z,16.30
2023-05-14T00:22:56.542Z,16.20
2023-05-14T00:25:23.610Z,16.30
2023-05-14T00:27:50.457Z,16.30
2023-05-14T00:30:17.330Z,16.10
2023-05-14T00:32:44.125Z,16.30
2023-05-14T00:35:10.899Z,16.20
2023-05-14T00:37:37.774Z,16.00
2023-05-14T00:40:06.884Z,17.00
2023-05-14T00:42:34.158Z,16.20
2023-05-14T00:45:00.873Z,16.00
2023-05-14T00:47:27.898Z,16.10
2023-05-14T00:49:54.758Z,16.10
2023-05-14T00:52:22.105Z,16.10
2023-05-14T00:54:49.380Z,16.00
2023-05-14T00:57:16.619Z,16.00
2023-05-14T00:59:43.451Z,16.00
2023-05-14T01:02:11.105Z,16.00
2023-05-14T01:04:38.744Z,16.20
2023-05-14T01:07:12.645Z,16.00
2023-05-14T01:09:48.691Z,16.00
2023-05-14T01:12:44.714Z,15.90
2023-05-14T01:15:16.353Z,16.00
2023-05-14T01:17:56.462Z,15.80
2023-05-14T01:20:24.135Z,16.20
2023-05-14T01:22:51.121Z,15.80
2023-05-14T01:25:18.135Z,15.70
2023-05-14T01:28:09.019Z,15.80
2023-05-14T01:30:58.620Z,15.80
2023-05-14T01:33:29.213Z,15.90
2023-05-14T01:35:56.336Z,15.80
2023-05-14T01:38:23.902Z,15.60
2023-05-14T01:40:50.948Z,15.60
2023-05-14T01:43:17.801Z,15.60
2023-05-14T01:45:45.033Z,15.60
2023-05-14T01:48:11.890Z,15.50
2023-05-14T01:50:38.669Z,15.50
2023-05-14T01:53:05.653Z,15.50
2023-05-14T01:55:32.352Z,15.40
2023-05-14T01:57:59.253Z,15.40
2023-05-14T02:00:26.352Z,15.40
2023-05-14T02:02:53.390Z,15.40
2023-05-14T02:05:21.065Z,15.30
2023-05-14T02:07:47.795Z,15.30
2023-05-14T02:10:15.898Z,15.30
2023-05-14T02:12:42.612Z,15.30
2023-05-14T02:15:10.920Z,15.20
2023-05-14T02:17:38.102Z,15.40
2023-05-14T02:20:05.592Z,15.20
2023-05-14T02:22:32.352Z,15.30
2023-05-14T02:24:59.062Z,15.20
2023-05-14T02:27:25.993Z,15.20
2023-05-14T02:29:52.937Z,15.30
2023-05-14T02:32:19.860Z,15.20
2023-05-14T02:34:46.659Z,15.10
2023-05-14T02:37:13.457Z,15.10
2023-05-14T02:39:40.194Z,15.00
2023-05-14T02:42:07.190Z,15.00
2023-05-14T02:44:33.973Z,15.10
2023-05-14T02:47:00.731Z,15.00
2023-05-14T02:49:27.447Z,15.10
2023-05-14T02:51:57.640Z,14.90
2023-05-14T02:54:24.406Z,15.00
2023-05-14T02:56:51.196Z,14.90
2023-05-14T02:59:18.083Z,14.90
2023-05-14T03:01:45.432Z,14.90
2023-05-14T03:04:12.738Z,14.90
2023-05-14T03:06:39.589Z,14.80
2023-05-14T03:09:06.340Z,14.90
2023-05-14T03:11:33.220Z,14.80
2023-05-14T03:13:59.908Z,14.80
2023-05-14T03:16:27.036Z,14.80
2023-05-14T03:18:53.866Z,14.80
2023-05-14T03:21:20.685Z,14.70
2023-05-14T03:23:48.770Z,14.70
2023-05-14T03:26:18.627Z,14.70
2023-05-14T03:28:45.383Z,14.70
2023-05-14T03:31:12.760Z,14.70
2023-05-14T03:33:39.641Z,14.70
2023-05-14T03:36:06.532Z,14.70
2023-05-14T03:38:33.298Z,14.70
2023-05-14T03:41:00.043Z,15.10
2023-05-14T03:43:26.829Z,14.70
2023-05-14T03:45:53.779Z,14.70
2023-05-14T03:48:20.966Z,14.60
2023-05-14T03:50:47.766Z,15.20
2023-05-14T03:53:14.537Z,14.60
2023-05-14T03:55:41.296Z,14.50
2023-05-14T03:58:13.915Z,14.70
2023-05-14T04:00:44.105Z,14.60
2023-05-14T04:03:11.736Z,14.60
2023-05-14T04:05:38.669Z,14.60
2023-05-14T04:08:05.860Z,14.60
2023-05-14T04:10:32.871Z,14.60
2023-05-14T04:13:00.535Z,14.60
2023-05-14T04:15:31.717Z,14.60
2023-05-14T04:17:58.561Z,14.40
2023-05-14T04:20:25.702Z,14.60
2023-05-14T04:22:53.338Z,14.60
2023-05-14T04:25:20.231Z,14.70
2023-05-14T04:27:46.965Z,14.70
2023-05-14T04:30:13.765Z,14.60
2023-05-14T04:32:40.735Z,14.60
2023-05-14T04:35:09.301Z,14.60
2023-05-14T04:37:36.139Z,14.70
2023-05-14T04:40:03.087Z,15.20
2023-05-14T04:42:29.816Z,14.70
2023-05-14T04:44:56.581Z,14.70
2023-05-14T04:47:23.381Z,14.70
2023-05-14T04:49:50.125Z,14.60
2023-05-14T04:52:16.866Z,14.70
2023-05-14T04:54:43.652Z,14.90
2023-05-14T04:57:10.500Z,14.80
2023-05-14T04:59:37.203Z,14.80
2023-05-14T05:02:04.010Z,15.00
2023-05-14T05:04:30.759Z,15.00
2023-05-14T05:06:57.570Z,15.00
2023-05-14T05:09:24.409Z,15.00
2023-05-14T05:11:51.218Z,15.00
2023-05-14T05:14:18.036Z,15.10
2023-05-14T05:16:45.025Z,15.40
2023-05-14T05:19:12.096Z,15.00
2023-05-14T05:21:40.804Z,15.20
2023-05-14T05:24:08.504Z,15.10
2023-05-14T05:26:36.904Z,15.20
2023-05-14T05:29:04.632Z,15.20
2023-05-14T05:31:32.226Z,15.10
2023-05-14T05:33:59.993Z,15.20
2023-05-14T05:36:26.734Z,15.20
2023-05-14T05:38:53.522Z,15.20
2023-05-14T05:41:20.492Z,15.20
2023-05-14T05:43:47.152Z,15.10
2023-05-14T05:46:13.904Z,15.20
2023-05-14T05:48:40.689Z,15.20
2023-05-14T05:51:07.499Z,15.30
2023-05-14T05:53:34.226Z,15.30
2023-05-14T05:56:00.977Z,15.20
2023-05-14T05:58:27.776Z,15.30
2023-05-14T06:00:55.061Z,15.50
2023-05-14T06:03:22.207Z,15.50
2023-05-14T06:05:49.130Z,15.60
2023-05-14T06:08:16.084Z,15.50
2023-05-14T06:10:42.786Z,15.60
2023-05-14T06:13:09.596Z,15.60
2023-05-14T06:15:36.339Z,15.70
2023-05-14T06:18:03.166Z,15.60
2023-05-14T06:20:29.941Z,15.80
2023-05-14T06:22:56.740Z,15.90
2023-05-14T06:25:23.497Z,16.50
2023-05-14T06:27:50.161Z,16.20
2023-05-14T06:30:16.993Z,16.50
2023-05-14T06:32:43.810Z,16.70
2023-05-14T06:35:10.742Z,16.60
2023-05-14T06:37:37.423Z,16.60
2023-05-14T06:40:05.031Z,16.60
2023-05-14T06:42:31.770Z,16.80
2023-05-14T06:44:58.636Z,17.60
2023-05-14T06:47:25.489Z,16.80
2023-05-14T06:49:52.253Z,16.90
2023-05-14T06:52:18.929Z,17.70
2023-05-14T06:54:45.667Z,17.00
2023-05-14T06:57:12.467Z,17.10
2023-05-14T06:59:40.192Z,17.20
2023-05-14T07:02:07.252Z,17.10
2023-05-14T07:04:34.264Z,17.30
2023-05-14T07:07:01.001Z,17.50
2023-05-14T07:09:27.850Z,17.40
2023-05-14T07:11:54.505Z,17.50
2023-05-14T07:14:21.271Z,17.60
2023-05-14T07:16:48.023Z,17.90
2023-05-14T07:19:14.803Z,18.10
2023-05-14T07:21:41.580Z,18.00
2023-05-14T07:24:08.402Z,18.80
2023-05-14T07:26:35.246Z,18.30
2023-05-14T07:29:01.963Z,18.20
2023-05-14T07:31:28.795Z,18.20
2023-05-14T07:33:55.851Z,19.10
2023-05-14T07:36:23.312Z,18.30
2023-05-14T07:38:50.122Z,18.30
2023-05-14T07:41:16.791Z,18.40
2023-05-14T07:43:43.636Z,19.40
2023-05-14T07:46:10.602Z,18.70
2023-05-14T07:48:37.429Z,18.70
2023-05-14T07:51:04.219Z,18.70
2023-05-14T07:53:30.959Z,18.70
2023-05-14T07:55:59.943Z,18.70
2023-05-14T07:58:28.036Z,19.10
2023-05-14T08:00:55.039Z,18.80
2023-05-14T08:03:21.931Z,18.90
2023-05-14T08:05:48.771Z,18.90
2023-05-14T08:08:16.129Z,18.80
2023-05-14T08:10:42.867Z,19.10
2023-05-14T08:13:09.609Z,19.20
2023-05-14T08:15:36.578Z,19.20
2023-05-14T08:18:03.831Z,19.10
2023-05-14T08:20:31.158Z,19.20
2023-05-14T08:22:58.253Z,20.10
2023-05-14T08:25:25.275Z,19.90
2023-05-14T08:27:53.642Z,19.20
2023-05-14T08:30:21.872Z,19.50
2023-05-14T08:32:48.763Z,19.70
2023-05-14T08:35:16.089Z,20.50
2023-05-14T08:37:42.830Z,19.70
2023-05-14T08:40:10.427Z,19.80
2023-05-14T08:42:40.623Z,20.00
2023-05-14T08:45:10.876Z,20.00
2023-05-14T08:47:37.693Z,20.00
2023-05-14T08:50:07.434Z,20.50
2023-05-14T08:52:35.080Z,20.20
2023-05-14T08:55:04.828Z,20.70
2023-05-14T08:57:33.342Z,20.40
2023-05-14T09:00:00.517Z,20.70
2023-05-14T09:02:31.425Z,20.80
2023-05-14T09:04:59.894Z,20.40
2023-05-14T09:07:27.256Z,20.60
2023-05-14T09:09:54.774Z,20.50
2023-05-14T09:12:21.912Z,20.50
2023-05-14T09:14:50.035Z,20.50
2023-05-14T09:17:17.930Z,20.30
2023-05-14T09:19:48.985Z,20.80
2023-05-14T09:22:17.667Z,20.30
2023-05-14T09:24:45.046Z,20.40
2023-05-14T09:27:21.474Z,20.50
2023-05-14T09:29:48.589Z,20.60
2023-05-14T09:32:15.455Z,20.70
2023-05-14T09:34:42.262Z,20.50
2023-05-14T09:37:09.728Z,21.20
2023-05-14T09:39:37.750Z,21.00
2023-05-14T09:42:04.921Z,20.40
2023-05-14T09:44:32.019Z,20.50
2023-05-14T09:46:59.044Z,20.40
2023-05-14T09:49:25.928Z,20.50
2023-05-14T09:51:52.772Z,20.90
2023-05-14T09:54:19.631Z,20.70
2023-05-14T09:56:46.318Z,21.40
2023-05-14T09:59:13.195Z,21.00
2023-05-14T10:01:43.149Z,21.00
2023-05-14T10:04:11.060Z,21.30
2023-05-14T10:06:39.180Z,21.20
2023-05-14T10:09:13.449Z,21.50
2023-05-14T10:11:44.469Z,21.60
2023-05-14T10:14:28.710Z,21.70
2023-05-14T10:16:58.961Z,21.40
2023-05-14T10:19:26.753Z,21.70
2023-05-14T10:22:04.057Z,21.80
2023-05-14T10:24:31.725Z,21.90
2023-05-14T10:26:58.843Z,21.80
2023-05-14T10:29:36.363Z,21.80
2023-05-14T10:32:08.345Z,21.80
2023-05-14T10:34:45.881Z,22.00
2023-05-14T10:37:15.060Z,22.00
2023-05-14T10:39:42.580Z,22.80
2023-05-14T10:42:12.925Z,22.40
2023-05-14T10:44:47.109Z,22.20
2023-05-14T10:47:15.922Z,22.80
2023-05-14T10:49:44.941Z,22.40
2023-05-14T10:52:12.553Z,22.50
2023-05-14T10:54:39.371Z,22.60
2023-05-14T10:57:11.707Z,22.70
2023-05-14T10:59:42.014Z,22.40
2023-05-14T11:02:29.327Z,22.60
2023-05-14T11:05:08.436Z,22.70
2023-05-14T11:07:43.912Z,22.70
2023-05-14T11:10:15.829Z,22.60
2023-05-14T11:12:44.611Z,22.90
2023-05-14T11:15:13.934Z,22.90
2023-05-14T11:17:42.963Z,23.10
2023-05-14T11:20:11.101Z,23.80
2023-05-14T11:22:39.489Z,23.60
2023-05-14T11:25:07.234Z,23.80
2023-05-14T11:27:36.070Z,24.00
2023-05-14T11:30:03.874Z,24.00
2023-05-14T11:32:33.095Z,24.20
2023-05-14T11:34:59.851Z,24.40
2023-05-14T11:37:26.566Z,24.60
2023-05-14T11:39:55.371Z,24.60
2023-05-14T11:42:23.624Z,24.70
2023-05-14T11:44:51.948Z,24.60
2023-05-14T11:47:20.699Z,24.50
2023-05-14T11:49:48.541Z,24.70
2023-05-14T11:52:16.675Z,24.60
2023-05-14T11:54:44.322Z,24.30
2023-05-14T11:57:21.814Z,24.20
2023-05-14T11:59:49.813Z,24.00
2023-05-14T12:02:19.732Z,23.90
2023-05-14T12:04:51.911Z,24.30
2023-05-14T12:07:18.716Z,24.20
2023-05-14T12:09:50.667Z,24.40
2023-05-14T12:12:23.530Z,24.50
2023-05-14T12:14:50.986Z,24.60
2023-05-14T12:17:20.043Z,25.00
2023-05-14T12:19:48.811Z,25.50
2023-05-14T12:22:19.638Z,25.30
2023-05-14T12:25:00.159Z,25.90
2023-05-14T12:27:28.496Z,25.30
2023-05-14T12:30:16.799Z,25.40
2023-05-14T12:32:48.844Z,25.40
2023-05-14T12:35:15.855Z,25.40
2023-05-14T12:37:42.920Z,25.30
2023-05-14T12:40:10.085Z,25.20
2023-05-14T12:42:37.287Z,25.50
2023-05-14T12:45:07.281Z,25.50
2023-05-14T12:47:34.781Z,25.90
2023-05-14T12:50:01.861Z,26.10
2023-05-14T12:52:37.436Z,26.30
2023-05-14T12:55:09.859Z,26.30
2023-05-14T12:57:39.073Z,26.20
2023-05-14T13:00:08.127Z,26.00
2023-05-14T13:02:42.647Z,26.00
2023-05-14T13:05:11.106Z,26.10
2023-05-14T13:07:38.210Z,26.10
2023-05-14T13:10:08.194Z,25.90
2023-05-14T13:12:35.030Z,25.90
2023-05-14T13:15:02.006Z,26.10
2023-05-14T13:17:28.823Z,26.40
2023-05-14T13:19:55.599Z,26.50
2023-05-14T13:22:22.249Z,26.70
2023-05-14T13:24:48.915Z,26.60
2023-05-14T13:27:15.656Z,26.50
2023-05-14T13:29:42.463Z,26.60
2023-05-14T13:32:09.239Z,26.70
2023-05-14T13:34:36.388Z,26.70
2023-05-14T13:37:03.772Z,26.50
2023-05-14T13:39:30.610Z,26.40
2023-05-14T13:41:57.317Z,26.30
2023-05-14T13:44:24.372Z,26.40
2023-05-14T13:46:51.299Z,26.40
2023-05-14T13:49:18.126Z,26.60
2023-05-14T13:51:45.067Z,26.60
2023-05-14T13:54:11.921Z,26.80
2023-05-14T13:56:38.655Z,27.00
2023-05-14T13:59:05.945Z,26.90
2023-05-14T14:01:32.794Z,26.70
2023-05-14T14:03:59.703Z,26.50
2023-05-14T14:06:30.064Z,26.50
2023-05-14T14:08:56.822Z,26.40
2023-05-14T14:11:23.649Z,26.40
2023-05-14T14:13:50.443Z,26.20
2023-05-14T14:16:17.268Z,26.20
2023-05-14T14:18:44.403Z,26.10
2023-05-14T14:21:11.239Z,26.00
2023-05-14T14:23:38.051Z,26.00
2023-05-14T14:26:04.774Z,25.90
2023-05-14T14:28:31.561Z,26.00
2023-05-14T14:30:58.416Z,25.90
2023-05-14T14:33:25.500Z,25.90
2023-05-14T14:35:52.877Z,25.90
2023-05-14T14:38:19.750Z,25.90
2023-05-14T14:40:46.864Z,25.80
2023-05-14T14:43:13.645Z,25.90
2023-05-14T14:45:40.514Z,26.30
2023-05-14T14:48:25.877Z,26.20
2023-05-14T14:50:53.488Z,26.60
2023-05-14T14:53:24.426Z,27.00
2023-05-14T14:55:51.711Z,27.10
2023-05-14T14:58:19.722Z,27.30
2023-05-14T15:00:47.003Z,27.30
2023-05-14T15:03:14.939Z,27.00
2023-05-14T15:05:41.985Z,27.00
2023-05-14T15:08:08.747Z,26.80
2023-05-14T15:10:37.912Z,26.80
2023-05-14T15:13:06.022Z,27.20
2023-05-14T15:15:33.944Z,26.70
2023-05-14T15:18:00.999Z,26.60
2023-05-14T15:20:27.779Z,26.50
2023-05-14T15:22:55.249Z,26.50
2023-05-14T15:25:23.240Z,26.40
2023-05-14T15:27:50.712Z,26.60
2023-05-14T15:30:17.618Z,26.60
2023-05-14T15:32:45.694Z,26.80
2023-05-14T15:35:12.897Z,26.80
2023-05-14T15:37:41.280Z,27.00
2023-05-14T15:40:09.089Z,27.10
2023-05-14T15:42:37.128Z,27.00
2023-05-14T15:45:04.727Z,26.90
2023-05-14T15:47:31.815Z,26.80
2023-05-14T15:49:59.116Z,26.80
2023-05-14T15:52:26.250Z,26.70
2023-05-14T15:54:54.209Z,26.60
2023-05-14T15:57:20.985Z,26.50
2023-05-14T15:59:47.823Z,26.40
2023-05-14T16:02:15.779Z,26.30
2023-05-14T16:04:42.671Z,26.10
2023-05-14T16:07:10.027Z,26.10
2023-05-14T16:09:36.908Z,25.90
2023-05-14T16:12:05.018Z,25.70
2023-05-14T16:14:36.013Z,25.80
2023-05-14T16:17:02.755Z,26.00
2023-05-14T16:19:29.490Z,26.00
2023-05-14T16:21:56.223Z,26.00
2023-05-14T16:24:24.012Z,25.70
2023-05-14T16:26:50.681Z,25.70
2023-05-14T16:29:17.734Z,25.50
2023-05-14T16:31:44.627Z,25.30
2023-05-14T16:34:11.473Z,25.30
2023-05-14T16:36:38.332Z,25.10
2023-05-14T16:39:08.077Z,24.80
2023-05-14T16:41:35.777Z,24.80
2023-05-14T16:44:03.372Z,24.80
2023-05-14T16:46:31.225Z,24.70
2023-05-14T16:48:58.180Z,24.70
2023-05-14T16:51:24.984Z,24.50
2023-05-14T16:53:52.141Z,24.60
2023-05-14T16:56:19.166Z,24.40
2023-05-14T16:58:45.868Z,24.40
2023-05-14T17:01:12.609Z,24.40
2023-05-14T17:03:39.344Z,24.30
2023-05-14T17:06:06.839Z,24.20
2023-05-14T17:08:35.482Z,23.90
2023-05-14T17:11:05.437Z,23.80
2023-05-14T17:13:32.997Z,23.70
2023-05-14T17:16:00.499Z,23.60
2023-05-14T17:18:27.459Z,23.40
2023-05-14T17:20:54.200Z,23.20
2023-05-14T17:23:20.921Z,22.80
2023-05-14T17:25:47.656Z,22.70
2023-05-14T17:28:14.421Z,22.40
2023-05-14T17:30:41.562Z,22.40
2023-05-14T17:33:08.473Z,22.10
2023-05-14T17:35:36.375Z,22.00
2023-05-14T17:38:03.454Z,21.70
2023-05-14T17:40:30.311Z,21.60
2023-05-14T17:42:57.034Z,21.60
2023-05-14T17:45:24.207Z,21.40
2023-05-14T17:47:51.423Z,21.40
2023-05-14T17:50:18.688Z,21.20
2023-05-14T17:52:46.097Z,21.10
2023-05-14T17:55:13.270Z,21.00
2023-05-14T17:57:41.641Z,21.00
2023-05-14T18:00:08.837Z,20.80
2023-05-14T18:02:39.217Z,20.90
2023-05-14T18:05:06.438Z,21.50
2023-05-14T18:07:33.355Z,20.70
2023-05-14T18:10:00.093Z,20.40
2023-05-14T18:12:27.359Z,20.40
2023-05-14T18:14:54.297Z,20.60
2023-05-14T18:17:21.574Z,20.40
2023-05-14T18:19:48.330Z,20.40
2023-05-14T18:22:15.598Z,20.20
2023-05-14T18:24:44.158Z,20.10
2023-05-14T18:27:11.025Z,20.00
2023-05-14T18:29:37.738Z,19.80
2023-05-14T18:32:04.956Z,20.40
2023-05-14T18:34:31.671Z,19.70
2023-05-14T18:36:58.482Z,19.60
2023-05-14T18:39:25.227Z,20.20
2023-05-14T18:41:52.172Z,19.50
2023-05-14T18:44:18.981Z,20.10
2023-05-14T18:46:46.019Z,19.50
2023-05-14T18:49:12.864Z,19.40
2023-05-14T18:51:39.694Z,19.30
2023-05-14T18:54:06.587Z,19.20
2023-05-14T18:56:33.620Z,19.60
2023-05-14T18:59:00.392Z,19.00
2023-05-14T19:01:27.971Z,18.80
2023-05-14T19:03:54.834Z,18.70
2023-05-14T19:06:21.627Z,18.80
2023-05-14T19:08:48.370Z,18.70
2023-05-14T19:11:16.163Z,18.60
2023-05-14T19:13:46.531Z,18.60
2023-05-14T19:16:13.529Z,18.60
2023-05-14T19:18:40.354Z,18.40
2023-05-14T19:21:07.336Z,18.30
2023-05-14T19:23:34.083Z,18.50
2023-05-14T19:26:01.150Z,18.30
2023-05-14T19:28:28.076Z,18.20
2023-05-14T19:30:54.890Z,18.10
2023-05-14T19:33:21.548Z,18.80
2023-05-14T19:35:48.369Z,18.00
2023-05-14T19:38:15.307Z,18.00
2023-05-14T19:40:43.036Z,18.00
2023-05-14T19:43:11.880Z,18.00
2023-05-14T19:45:39.395Z,17.80
2023-05-14T19:48:06.793Z,18.60
2023-05-14T19:50:34.340Z,17.70
2023-05-14T19:53:01.281Z,17.70
2023-05-14T19:55:28.049Z,17.80
2023-05-14T19:57:54.725Z,17.80
2023-05-14T20:00:22.745Z,17.70
2023-05-14T20:02:49.694Z,17.70
2023-05-14T20:05:16.636Z,17.40
2023-05-14T20:07:43.831Z,17.50
2023-05-14T20:10:11.015Z,17.40
2023-05-14T20:12:37.742Z,17.20
2023-05-14T20:15:04.839Z,17.30
2023-05-14T20:17:31.671Z,17.30
2023-05-14T20:19:58.481Z,17.30
2023-05-14T20:22:25.205Z,17.10
2023-05-14T20:24:52.707Z,17.20
2023-05-14T20:27:19.519Z,17.10
2023-05-14T20:29:46.890Z,17.90
2023-05-14T20:32:15.547Z,17.20
2023-05-14T20:34:42.253Z,17.00
2023-05-14T20:37:09.299Z,17.00
2023-05-14T20:39:36.057Z,17.00
2023-05-14T20:42:02.824Z,17.00
2023-05-14T20:44:29.566Z,17.00
2023-05-14T20:46:56.328Z,16.90
2023-05-14T20:49:23.007Z,16.90
2023-05-14T20:51:49.754Z,16.90
2023-05-14T20:54:16.469Z,17.10
2023-05-14T20:56:43.190Z,16.90
2023-05-14T20:59:09.941Z,17.00
2023-05-14T21:01:36.712Z,16.90
2023-05-14T21:04:03.723Z,16.80
2023-05-14T21:06:30.583Z,16.80
2023-05-14T21:08:57.317Z,16.90
2023-05-14T21:11:24.177Z,16.70
2023-05-14T21:13:50.961Z,16.80
2023-05-14T21:16:17.799Z,16.80
2023-05-14T21:18:44.631Z,16.70
2023-05-14T21:21:11.382Z,16.70
2023-05-14T21:23:38.130Z,17.40
2023-05-14T21:26:04.864Z,16.90
2023-05-14T21:28:31.537Z,16.90
2023-05-14T21:30:58.246Z,16.90
2023-05-14T21:33:25.025Z,17.00
2023-05-14T21:35:51.953Z,17.00
2023-05-14T21:38:19.013Z,16.90
2023-05-14T21:40:45.734Z,17.50
2023-05-14T21:43:12.462Z,16.90
2023-05-14T21:45:39.160Z,16.90
2023-05-14T21:48:06.755Z,16.90
2023-05-14T21:50:33.561Z,17.10
2023-05-14T21:53:00.309Z,17.00
2023-05-14T21:55:28.728Z,16.90
2023-05-14T21:57:55.758Z,17.00
2023-05-14T22:00:24.031Z,16.90
2023-05-14T22:02:52.278Z,16.90
2023-05-14T22:05:19.692Z,16.90
2023-05-14T22:07:46.662Z,16.90
2023-05-14T22:10:14.705Z,17.00
2023-05-14T22:12:43.216Z,17.80
2023-05-14T22:15:11.005Z,16.90
2023-05-14T22:17:38.491Z,16.80
2023-05-14T22:20:06.778Z,16.70
2023-05-14T22:22:34.287Z,16.80
2023-05-14T22:25:01.021Z,16.70
2023-05-14T22:27:27.851Z,16.80
2023-05-14T22:29:55.205Z,16.70
2023-05-14T22:32:22.032Z,16.70
2023-05-14T22:34:49.018Z,17.70
2023-05-14T22:37:16.152Z,16.80
2023-05-14T22:39:43.308Z,16.80
2023-05-14T22:42:10.913Z,16.70
2023-05-14T22:44:37.626Z,16.70
2023-05-14T22:47:05.219Z,16.70
2023-05-14T22:49:31.999Z,16.70
2023-05-14T22:51:58.750Z,17.40
2023-05-14T22:54:25.571Z,16.60
2023-05-14T22:56:52.336Z,16.70
2023-05-14T22:59:19.820Z,16.70
2023-05-14T23:01:47.787Z,16.70
2023-05-14T23:04:14.664Z,16.70
2023-05-14T23:06:41.619Z,16.70
2023-05-14T23:09:08.426Z,16.70
2023-05-14T23:11:36.601Z,16.70
2023-05-14T23:14:03.340Z,16.70
2023-05-14T23:16:30.012Z,16.60
2023-05-14T23:18:56.852Z,16.60
2023-05-14T23:21:23.765Z,16.50
2023-05-14T23:23:50.619Z,16.70
2023-05-14T23:26:17.416Z,16.70
2023-05-14T23:28:44.139Z,16.80
2023-05-14T23:31:10.944Z,16.80
2023-05-14T23:33:39.683Z,17.70
2023-05-14T23:36:07.104Z,16.70
2023-05-14T23:38:33.892Z,16.90
2023-05-14T23:41:00.601Z,16.80
2023-05-14T23:43:27.448Z,16.80
2023-05-14T23:45:54.218Z,16.70
2023-05-14T23:48:20.982Z,16.70
2023-05-14T23:50:47.746Z,16.70
2023-05-14T23:53:14.522Z,16.80
2023-05-14T23:55:41.261Z,16.70
2023-05-14T23:58:07.984Z,16.70
